createdAt,value
2023-02-09T00:00:38.268Z,10.07
2023-02-09T00:03:11.210Z,9.88
2023-02-09T00:05:44.741Z,10.02
2023-02-09T00:08:17.866Z,10.90
2023-02-09T00:10:50.769Z,10.13
2023-02-09T00:13:22.978Z,11.27
2023-02-09T00:16:01.621Z,10.95
2023-02-09T00:18:35.112Z,10.93
2023-02-09T00:21:10.827Z,11.10
2023-02-09T00:23:43.818Z,11.63
2023-02-09T00:26:16.958Z,10.85
2023-02-09T00:28:49.760Z,11.00
2023-02-09T00:31:24.285Z,10.80
2023-02-09T00:33:57.688Z,11.73
2023-02-09T00:36:31.062Z,10.85
2023-02-09T00:39:04.543Z,10.75
2023-02-09T00:41:55.205Z,10.90
2023-02-09T00:44:28.051Z,9.88
2023-02-09T00:47:02.687Z,10.07
2023-02-09T00:49:35.863Z,10.38
2023-02-09T00:52:10.106Z,10.77
2023-02-09T00:54:43.316Z,10.00
2023-02-09T00:57:16.238Z,9.73
2023-02-09T00:59:49.119Z,10.13
2023-02-09T01:02:23.409Z,9.95
2023-02-09T01:04:56.351Z,9.93
2023-02-09T01:07:29.479Z,10.20
2023-02-09T01:10:03.058Z,9.65
2023-02-09T01:12:36.054Z,8.95
2023-02-09T01:15:10.795Z,10.02
2023-02-09T01:17:45.140Z,10.38
2023-02-09T01:20:18.499Z,9.82
2023-02-09T01:22:51.661Z,9.25
2023-02-09T01:25:24.572Z,9.73
2023-02-09T01:27:57.761Z,10.35
2023-02-09T01:30:30.768Z,10.38
2023-02-09T01:33:05.169Z,9.70
2023-02-09T01:35:37.991Z,10.05
2023-02-09T01:38:10.974Z,9.77
2023-02-09T01:40:48.584Z,10.90
2023-02-09T01:43:21.704Z,10.07
2023-02-09T01:45:55.680Z,10.13
2023-02-09T01:48:32.312Z,9.82
2023-02-09T01:51:05.537Z,9.90
2023-02-09T01:53:38.530Z,10.50
2023-02-09T01:56:15.758Z,10.88
2023-02-09T01:58:49.571Z,10.88
2023-02-09T02:01:23.424Z,10.38
2023-02-09T02:03:58.230Z,9.60
2023-02-09T02:06:32.045Z,9.93
2023-02-09T02:09:10.064Z,10.25
2023-02-09T02:11:46.346Z,9.68
2023-02-09T02:14:37.997Z,9.75
2023-02-09T02:17:21.087Z,9.80
2023-02-09T02:20:28.592Z,9.88
2023-02-09T02:23:10.264Z,9.32
2023-02-09T02:29:15.854Z,8.20
2023-02-09T02:32:10.345Z,8.60
2023-02-09T02:34:48.354Z,9.07
2023-02-09T02:37:33.534Z,9.38
2023-02-09T02:40:18.974Z,9.32
2023-02-09T02:42:56.729Z,9.18
2023-02-09T02:45:37.316Z,9.88
2023-02-09T02:48:25.164Z,10.50
2023-02-09T02:51:04.603Z,9.70
2023-02-09T02:53:40.880Z,9.68
2023-02-09T02:56:18.213Z,10.60
2023-02-09T02:58:54.118Z,10.07
2023-02-09T03:01:35.306Z,9.75
2023-02-09T03:04:11.047Z,10.07
2023-02-09T03:06:43.997Z,10.40
2023-02-09T03:09:18.945Z,9.93
2023-02-09T03:11:58.711Z,10.13
2023-02-09T03:14:43.823Z,10.70
2023-02-09T03:17:28.541Z,9.63
2023-02-09T03:20:09.428Z,9.55
2023-02-09T03:22:47.757Z,10.00
2023-02-09T03:25:25.348Z,10.07
2023-02-09T03:28:02.067Z,9.48
2023-02-09T03:30:36.821Z,10.23
2023-02-09T03:33:20.941Z,10.60
2023-02-09T03:35:57.970Z,9.75
2023-02-09T03:38:30.865Z,9.57
2023-02-09T03:41:03.812Z,9.90
2023-02-09T03:43:54.226Z,10.25
2023-02-09T03:46:27.334Z,10.15
2023-02-09T03:49:00.262Z,10.65
2023-02-09T03:51:34.934Z,11.75
2023-02-09T03:54:07.913Z,10.63
2023-02-09T03:56:40.803Z,10.35
2023-02-09T03:59:13.669Z,10.10
2023-02-09T04:01:46.581Z,11.02
2023-02-09T04:04:19.808Z,11.07
2023-02-09T04:06:54.420Z,11.35
2023-02-09T04:09:28.136Z,10.85
2023-02-09T04:12:01.124Z,9.70
2023-02-09T04:14:33.959Z,10.00
2023-02-09T04:17:06.869Z,10.50
2023-02-09T04:19:39.871Z,10.13
2023-02-09T04:22:14.133Z,11.02
2023-02-09T04:24:46.994Z,10.80
2023-02-09T04:27:20.062Z,10.15
2023-02-09T04:29:52.934Z,11.20
2023-02-09T04:32:25.828Z,10.57
2023-02-09T04:34:58.748Z,10.95
2023-02-09T04:37:33.049Z,10.98
2023-02-09T04:40:07.859Z,10.90
2023-02-09T04:42:40.828Z,9.90
2023-02-09T04:45:13.696Z,10.52
2023-02-09T04:47:46.593Z,10.18
2023-02-09T04:50:19.672Z,10.18
2023-02-09T04:52:53.919Z,10.48
2023-02-09T04:55:26.941Z,10.52
2023-02-09T04:58:17.315Z,10.98
2023-02-09T05:00:50.258Z,9.88
2023-02-09T05:03:24.711Z,9.80
2023-02-09T05:05:58.996Z,11.68
2023-02-09T05:08:33.916Z,9.30
2023-02-09T05:11:07.145Z,11.32
2023-02-09T05:13:40.462Z,10.18
2023-02-09T05:16:17.755Z,10.40
2023-02-09T05:18:51.414Z,9.63
2023-02-09T05:21:24.281Z,9.75
2023-02-09T05:23:58.703Z,9.75
2023-02-09T05:26:31.609Z,9.55
2023-02-09T05:29:04.958Z,10.68
2023-02-09T05:31:37.897Z,10.52
2023-02-09T05:34:10.827Z,11.48
2023-02-09T05:36:43.688Z,9.77
2023-02-09T05:39:18.170Z,10.82
2023-02-09T05:42:08.913Z,10.48
2023-02-09T05:44:42.027Z,10.48
2023-02-09T05:47:16.788Z,10.20
2023-02-09T05:49:49.791Z,11.10
2023-02-09T05:52:23.084Z,10.70
2023-02-09T05:54:57.502Z,10.50
2023-02-09T05:57:30.479Z,11.15
2023-02-09T06:00:04.105Z,9.75
2023-02-09T06:02:37.019Z,10.25
2023-02-09T06:05:10.038Z,10.13
2023-02-09T06:07:42.917Z,11.38
2023-02-09T06:10:17.400Z,9.52
2023-02-09T06:12:50.292Z,10.13
2023-02-09T06:15:23.314Z,10.20
2023-02-09T06:17:56.178Z,9.98
2023-02-09T06:20:29.118Z,10.82
2023-02-09T06:23:02.447Z,9.25
2023-02-09T06:25:39.555Z,10.90
2023-02-09T06:28:12.972Z,10.35
2023-02-09T06:30:46.160Z,9.73
2023-02-09T06:33:19.717Z,10.75
2023-02-09T06:35:52.680Z,10.25
2023-02-09T06:38:25.610Z,9.90
2023-02-09T06:41:00.039Z,9.68
2023-02-09T06:43:33.372Z,10.27
2023-02-09T06:46:07.901Z,9.60
2023-02-09T06:48:41.086Z,8.98
2023-02-09T06:51:15.597Z,9.18
2023-02-09T06:53:48.629Z,9.82
2023-02-09T06:56:23.536Z,9.45
2023-02-09T06:58:56.875Z,10.30
2023-02-09T07:01:29.826Z,9.60
2023-02-09T07:04:02.735Z,9.60
2023-02-09T07:06:35.690Z,9.90
2023-02-09T07:09:08.853Z,8.70
2023-02-09T07:11:43.858Z,9.68
2023-02-09T07:14:16.802Z,9.45
2023-02-09T07:16:49.662Z,9.25
2023-02-09T07:19:22.577Z,9.23
2023-02-09T07:21:55.448Z,8.90
2023-02-09T07:24:28.835Z,9.55
2023-02-09T07:27:03.153Z,9.68
2023-02-09T07:29:36.177Z,9.77
2023-02-09T07:32:09.225Z,10.07
2023-02-09T07:34:42.127Z,9.23
2023-02-09T07:37:15.040Z,9.57
2023-02-09T07:39:48.190Z,9.73
2023-02-09T07:42:23.478Z,11.38
2023-02-09T07:44:56.406Z,9.80
2023-02-09T07:47:29.306Z,10.45
2023-02-09T07:50:02.166Z,10.55
2023-02-09T07:52:35.051Z,10.95
2023-02-09T07:55:08.636Z,10.23
2023-02-09T07:57:42.916Z,10.80
2023-02-09T08:00:16.936Z,11.10
2023-02-09T08:02:51.181Z,10.88
2023-02-09T08:05:31.770Z,10.70
2023-02-09T08:08:05.160Z,10.50
2023-02-09T08:10:38.203Z,9.50
2023-02-09T08:13:14.269Z,10.55
2023-02-09T08:15:52.189Z,11.18
2023-02-09T08:18:29.009Z,11.50
2023-02-09T08:21:01.998Z,10.63
2023-02-09T08:23:38.424Z,11.50
2023-02-09T08:26:15.160Z,11.35
2023-02-09T08:28:49.961Z,11.27
2023-02-09T08:31:23.317Z,11.25
2023-02-09T08:33:56.305Z,11.70
2023-02-09T08:36:29.276Z,12.55
2023-02-09T08:39:03.230Z,13.50
2023-02-09T08:41:36.190Z,13.68
2023-02-09T08:44:10.500Z,14.98
2023-02-09T08:46:43.543Z,12.48
2023-02-09T08:49:16.692Z,13.18
2023-02-09T08:51:49.652Z,14.05
2023-02-09T08:54:22.552Z,14.30
2023-02-09T08:56:55.544Z,12.80
2023-02-09T08:59:30.261Z,13.10
2023-02-09T09:02:03.168Z,12.95
2023-02-09T09:04:36.294Z,12.93
2023-02-09T09:07:09.177Z,13.88
2023-02-09T09:09:42.223Z,12.60
2023-02-09T09:12:15.168Z,13.02
2023-02-09T09:14:49.564Z,14.20
2023-02-09T09:17:22.590Z,12.50
2023-02-09T09:19:56.440Z,11.68
2023-02-09T09:22:29.321Z,12.57
2023-02-09T09:25:02.209Z,12.93
2023-02-09T09:27:36.172Z,13.20
2023-02-09T09:30:11.855Z,14.32
2023-02-09T09:32:44.773Z,13.45
2023-02-09T09:35:17.851Z,12.90
2023-02-09T09:37:50.841Z,12.65
2023-02-09T09:40:28.006Z,13.48
2023-02-09T09:43:04.105Z,12.32
2023-02-09T09:45:40.601Z,12.15
2023-02-09T09:48:24.003Z,11.80
2023-02-09T09:50:59.977Z,12.85
2023-02-09T09:53:36.535Z,11.32
2023-02-09T09:56:10.530Z,11.90
2023-02-09T09:58:45.501Z,12.60
2023-02-09T10:01:21.637Z,11.38
2023-02-09T10:03:54.627Z,11.43
2023-02-09T10:06:33.890Z,11.60
2023-02-09T10:09:15.810Z,12.73
2023-02-09T10:11:54.745Z,12.88
2023-02-09T10:14:27.633Z,11.45
2023-02-09T10:17:02.044Z,12.05
2023-02-09T10:19:34.961Z,12.07
2023-02-09T10:22:14.015Z,12.77
2023-02-09T10:24:46.874Z,11.70
2023-02-09T10:27:27.277Z,12.15
2023-02-09T10:30:19.416Z,11.40
2023-02-09T10:32:54.498Z,12.55
2023-02-09T10:35:29.545Z,10.43
2023-02-09T10:38:04.099Z,12.05
2023-02-09T10:40:41.278Z,12.25
2023-02-09T10:43:22.466Z,11.82
2023-02-09T10:45:57.515Z,11.82
2023-02-09T10:48:42.050Z,11.63
2023-02-09T10:51:16.665Z,12.70
2023-02-09T10:54:02.378Z,11.82
2023-02-09T10:56:44.732Z,11.95
2023-02-09T10:59:19.552Z,11.32
2023-02-09T11:01:57.898Z,11.30
2023-02-09T11:04:40.795Z,12.32
2023-02-09T11:07:19.080Z,10.93
2023-02-09T11:09:53.315Z,12.07
2023-02-09T11:12:28.607Z,11.98
2023-02-09T11:15:02.814Z,11.77
2023-02-09T11:17:40.178Z,12.15
2023-02-09T11:20:24.416Z,11.43
2023-02-09T11:23:22.501Z,12.25
2023-02-09T11:26:01.672Z,11.05
2023-02-09T11:28:43.724Z,10.95
2023-02-09T11:31:50.295Z,10.45
2023-02-09T11:34:39.080Z,11.05
2023-02-09T11:37:25.558Z,11.43
2023-02-09T11:40:07.815Z,11.57
2023-02-09T11:42:47.754Z,11.13
2023-02-09T11:45:28.653Z,11.40
2023-02-09T11:48:11.990Z,11.27
2023-02-09T11:51:00.236Z,11.00
2023-02-09T11:53:54.867Z,11.45
2023-02-09T11:56:29.474Z,12.15
2023-02-09T11:59:10.051Z,11.85
2023-02-09T12:01:48.636Z,12.48
2023-02-09T12:04:28.297Z,11.07
2023-02-09T12:07:04.423Z,11.30
2023-02-09T12:09:48.228Z,10.80
2023-02-09T12:12:28.969Z,11.60
2023-02-09T12:15:12.642Z,11.48
2023-02-09T12:17:51.187Z,12.23
2023-02-09T12:20:30.748Z,11.80
2023-02-09T12:23:08.076Z,11.52
2023-02-09T12:26:02.524Z,11.65
2023-02-09T12:28:42.440Z,11.38
2023-02-09T12:31:27.062Z,11.32
2023-02-09T12:34:29.707Z,11.57
2023-02-09T12:37:20.041Z,11.18
2023-02-09T12:40:24.986Z,12.05
2023-02-09T12:43:30.045Z,11.63
2023-02-09T12:46:21.759Z,11.52
2023-02-09T12:49:10.163Z,11.18
2023-02-09T12:51:51.210Z,11.52
2023-02-09T12:54:33.601Z,12.23
2023-02-09T12:57:40.017Z,12.27
2023-02-09T13:00:34.223Z,11.65
2023-02-09T13:03:13.708Z,12.05
2023-02-09T13:05:49.031Z,11.95
2023-02-09T13:08:49.629Z,11.98
2023-02-09T13:11:34.136Z,12.10
2023-02-09T13:14:10.430Z,12.40
2023-02-09T13:17:07.347Z,12.48
2023-02-09T13:19:58.864Z,11.95
2023-02-09T13:22:40.592Z,11.23
2023-02-09T13:25:21.702Z,10.95
2023-02-09T13:27:54.775Z,10.43
2023-02-09T13:30:29.903Z,10.48
2023-02-09T13:33:17.751Z,10.80
2023-02-09T13:36:08.871Z,10.38
2023-02-09T13:38:44.464Z,11.43
2023-02-09T13:41:31.036Z,11.63
2023-02-09T13:44:04.091Z,11.77
2023-02-09T13:46:37.005Z,9.90
2023-02-09T13:49:19.340Z,10.10
2023-02-09T13:52:15.498Z,10.52
2023-02-09T13:54:48.502Z,8.95
2023-02-09T13:57:31.849Z,9.88
2023-02-09T14:00:17.687Z,10.18
2023-02-09T14:02:54.501Z,9.77
2023-02-09T14:05:35.140Z,11.15
2023-02-09T14:08:09.840Z,10.68
2023-02-09T14:10:45.552Z,10.88
2023-02-09T14:13:22.484Z,10.55
2023-02-09T14:16:08.682Z,10.52
2023-02-09T14:18:49.452Z,9.82
2023-02-09T14:21:29.808Z,9.77
2023-02-09T14:24:24.640Z,8.68
2023-02-09T14:27:04.761Z,8.95
2023-02-09T14:29:39.048Z,10.00
2023-02-09T14:32:32.314Z,9.75
2023-02-09T14:35:19.409Z,9.27
2023-02-09T14:37:55.544Z,8.18
2023-02-09T14:40:34.150Z,8.98
2023-02-09T14:43:24.840Z,8.45
2023-02-09T14:46:01.104Z,9.15
2023-02-09T14:48:34.107Z,9.50
2023-02-09T14:51:14.674Z,9.52
2023-02-09T14:53:49.033Z,10.02
2023-02-09T14:56:28.470Z,9.85
2023-02-09T14:59:01.384Z,10.35
2023-02-09T15:01:34.303Z,10.20
2023-02-09T15:04:07.184Z,10.70
2023-02-09T15:06:40.444Z,9.80
2023-02-09T15:09:22.092Z,8.60
2023-02-09T15:12:07.207Z,9.90
2023-02-09T15:14:44.013Z,9.75
2023-02-09T15:17:19.157Z,10.07
2023-02-09T15:19:52.709Z,9.38
2023-02-09T15:22:25.961Z,10.07
2023-02-09T15:25:00.349Z,9.93
2023-02-09T15:27:36.040Z,9.48
2023-02-09T15:30:15.558Z,8.95
2023-02-09T15:32:48.591Z,9.05
2023-02-09T15:35:23.534Z,8.80
2023-02-09T15:37:59.568Z,9.82
2023-02-09T15:40:54.534Z,9.88
2023-02-09T15:43:45.142Z,9.77
2023-02-09T15:46:36.017Z,8.93
2023-02-09T15:49:08.972Z,9.00
2023-02-09T15:51:42.564Z,9.90
2023-02-09T15:54:18.764Z,10.40
2023-02-09T15:56:55.025Z,9.43
2023-02-09T15:59:28.207Z,10.15
2023-02-09T16:02:01.213Z,9.75
2023-02-09T16:04:34.176Z,10.02
2023-02-09T16:07:08.253Z,9.90
2023-02-09T16:09:43.848Z,10.35
2023-02-09T16:12:18.245Z,11.40
2023-02-09T16:14:53.169Z,9.25
2023-02-09T16:17:26.285Z,9.55
2023-02-09T16:19:59.114Z,9.65
2023-02-09T16:22:32.283Z,9.43
2023-02-09T16:25:05.459Z,9.13
2023-02-09T16:27:40.817Z,10.52
2023-02-09T16:30:18.465Z,10.27
2023-02-09T16:32:51.991Z,9.50
2023-02-09T16:35:25.977Z,9.27
2023-02-09T16:37:59.324Z,9.10
2023-02-09T16:40:34.387Z,8.88
2023-02-09T16:43:11.746Z,9.00
2023-02-09T16:46:00.990Z,8.85
2023-02-09T16:48:35.639Z,8.38
2023-02-09T16:51:13.609Z,8.02
2023-02-09T16:53:51.492Z,8.77
2023-02-09T16:56:25.951Z,7.95
2023-02-09T16:59:00.669Z,7.68
2023-02-09T17:01:34.434Z,8.20
2023-02-09T17:04:09.588Z,8.60
2023-02-09T17:06:42.710Z,8.15
2023-02-09T17:09:17.157Z,7.47
2023-02-09T17:11:50.043Z,8.88
2023-02-09T17:14:24.324Z,9.75
2023-02-09T17:16:57.356Z,9.60
2023-02-09T17:19:42.158Z,9.90
2023-02-09T17:22:20.414Z,8.13
2023-02-09T17:24:53.316Z,8.82
2023-02-09T17:27:26.237Z,8.88
2023-02-09T17:30:00.642Z,9.23
2023-02-09T17:32:33.555Z,8.35
2023-02-09T17:35:14.440Z,8.98
2023-02-09T17:37:48.211Z,8.37
2023-02-09T17:40:23.581Z,8.70
2023-02-09T17:42:57.107Z,9.05
2023-02-09T17:45:35.057Z,9.18
2023-02-09T17:48:10.423Z,8.82
2023-02-09T17:50:45.185Z,9.45
2023-02-09T17:53:20.846Z,8.60
2023-02-09T17:55:56.412Z,8.57
2023-02-09T17:58:29.698Z,8.50
2023-02-09T18:01:21.575Z,8.73
2023-02-09T18:03:54.670Z,8.85
2023-02-09T18:06:33.712Z,8.90
2023-02-09T18:09:09.107Z,8.55
2023-02-09T18:11:57.593Z,8.32
2023-02-09T18:14:32.457Z,9.20
2023-02-09T18:17:07.046Z,8.50
2023-02-09T18:19:40.166Z,8.95
2023-02-09T18:22:17.067Z,9.20
2023-02-09T18:24:50.965Z,9.63
2023-02-09T18:27:25.580Z,8.65
2023-02-09T18:29:58.600Z,9.40
2023-02-09T18:32:33.009Z,7.85
2023-02-09T18:35:06.618Z,8.60
2023-02-09T18:37:39.548Z,9.50
2023-02-09T18:40:12.619Z,8.65
2023-02-09T18:42:46.616Z,8.40
2023-02-09T18:45:21.337Z,8.40
2023-02-09T18:47:55.679Z,8.55
2023-02-09T18:50:30.904Z,8.43
2023-02-09T18:53:04.553Z,8.07
2023-02-09T18:55:37.468Z,7.90
2023-02-09T18:58:10.421Z,7.07
2023-02-09T19:00:43.260Z,8.43
2023-02-09T19:03:20.101Z,8.18
2023-02-09T19:05:53.026Z,8.18
2023-02-09T19:08:26.152Z,8.02
2023-02-09T19:10:59.045Z,8.15
2023-02-09T19:13:34.092Z,7.97
2023-02-09T19:16:11.582Z,7.90
2023-02-09T19:18:46.517Z,8.27
2023-02-09T19:21:20.384Z,7.18
2023-02-09T19:23:54.469Z,7.55
2023-02-09T19:26:27.385Z,7.88
2023-02-09T19:29:00.263Z,6.72
2023-02-09T19:31:33.223Z,7.70
2023-02-09T19:34:07.654Z,7.45
2023-02-09T19:36:40.560Z,7.18
2023-02-09T19:39:14.064Z,7.82
2023-02-09T19:41:49.090Z,6.90
2023-02-09T19:44:23.599Z,7.53
2023-02-09T19:46:56.455Z,8.00
2023-02-09T19:49:34.213Z,6.93
2023-02-09T19:52:07.538Z,7.68
2023-02-09T19:54:40.489Z,7.47
2023-02-09T19:57:13.684Z,8.20
2023-02-09T19:59:47.006Z,6.93
2023-02-09T20:02:19.910Z,7.60
2023-02-09T20:04:54.196Z,7.28
2023-02-09T20:07:27.096Z,7.90
2023-02-09T20:10:00.146Z,8.25
2023-02-09T20:12:33.365Z,8.00
2023-02-09T20:15:06.745Z,7.45
2023-02-09T20:17:39.657Z,7.53
2023-02-09T20:20:14.423Z,7.95
2023-02-09T20:22:49.333Z,7.38
2023-02-09T20:25:22.324Z,7.63
2023-02-09T20:27:55.621Z,8.00
2023-02-09T20:30:28.713Z,7.03
2023-02-09T20:33:01.641Z,7.90
2023-02-09T20:35:36.195Z,7.63
2023-02-09T20:38:09.666Z,8.02
2023-02-09T20:40:43.594Z,7.85
2023-02-09T20:43:34.215Z,7.43
2023-02-09T20:46:25.279Z,7.95
2023-02-09T20:48:58.159Z,7.30
2023-02-09T20:51:32.519Z,7.00
2023-02-09T20:54:06.013Z,7.00
2023-02-09T20:56:39.082Z,6.95
2023-02-09T20:59:13.323Z,6.47
2023-02-09T21:01:46.525Z,6.78
2023-02-09T21:04:19.660Z,6.50
2023-02-09T21:06:54.333Z,7.40
2023-02-09T21:09:28.349Z,6.35
2023-02-09T21:12:01.358Z,7.45
2023-02-09T21:14:42.070Z,6.45
2023-02-09T21:17:15.922Z,7.10
2023-02-09T21:19:48.835Z,6.78
2023-02-09T21:22:23.416Z,6.28
2023-02-09T21:24:56.375Z,6.68
2023-02-09T21:27:29.326Z,6.68
2023-02-09T21:30:02.304Z,7.25
2023-02-09T21:32:35.375Z,6.80
2023-02-09T21:35:10.388Z,6.57
2023-02-09T21:37:44.836Z,6.28
2023-02-09T21:40:20.370Z,7.25
2023-02-09T21:42:53.627Z,6.47
2023-02-09T21:45:26.565Z,6.90
2023-02-09T21:48:00.753Z,6.38
2023-02-09T21:50:34.387Z,6.25
2023-02-09T21:53:08.733Z,6.32
2023-02-09T21:55:41.672Z,5.78
2023-02-09T21:58:14.964Z,6.82
2023-02-09T22:00:48.249Z,6.55
2023-02-09T22:03:21.367Z,5.38
2023-02-09T22:05:57.192Z,5.55
2023-02-09T22:08:31.823Z,5.63
2023-02-09T22:11:06.637Z,5.85
2023-02-09T22:13:39.579Z,6.82
2023-02-09T22:16:18.638Z,6.55
2023-02-09T22:18:52.124Z,6.50
2023-02-09T22:21:25.135Z,6.90
2023-02-09T22:23:59.362Z,6.55
2023-02-09T22:26:32.457Z,5.97
2023-02-09T22:29:05.428Z,6.03
2023-02-09T22:31:38.416Z,6.50
2023-02-09T22:34:11.752Z,6.25
2023-02-09T22:36:48.729Z,6.38
2023-02-09T22:39:23.458Z,6.22
2023-02-09T22:41:58.589Z,6.13
2023-02-09T22:44:32.236Z,6.05
2023-02-09T22:47:05.277Z,6.50
2023-02-09T22:49:38.222Z,6.70
2023-02-09T22:52:11.253Z,5.90
2023-02-09T22:54:45.718Z,6.45
2023-02-09T22:57:18.629Z,6.18
2023-02-09T22:59:51.534Z,6.07
2023-02-09T23:02:25.243Z,5.78
2023-02-09T23:04:59.358Z,5.82
2023-02-09T23:07:32.240Z,6.00
2023-02-09T23:10:07.150Z,5.88
2023-02-09T23:12:40.047Z,6.57
2023-02-09T23:15:13.125Z,6.25
2023-02-09T23:17:46.080Z,5.93
2023-02-09T23:20:19.338Z,6.25
2023-02-09T23:22:54.330Z,6.22
2023-02-09T23:25:29.264Z,5.72
2023-02-09T23:28:02.329Z,5.50
2023-02-09T23:30:35.555Z,5.72
2023-02-09T23:33:08.390Z,5.57
2023-02-09T23:35:41.557Z,5.90
2023-02-09T23:38:14.580Z,6.55
2023-02-09T23:40:49.041Z,5.68
2023-02-09T23:43:21.994Z,5.60
2023-02-09T23:45:55.089Z,6.07
2023-02-09T23:48:28.126Z,5.65
2023-02-09T23:51:01.437Z,5.43
2023-02-09T23:53:35.089Z,5.80
2023-02-09T23:56:09.705Z,5.50
2023-02-09T23:58:45.147Z,5.43
